Flugplatz Münster Osnabrück

Bericht für EDDG

vom 25.09. um 08:20 UTC

Wind 10 kt aus 200°

Sichtweite 10 km oder mehr

gering bewölkt in 2000 ft

Temperatur 12.0°C

Taupunkt 7.0°C

Luftfeuchtigkeit 71%

Luftdruck 997 hPa

keine wesentliche Wetteränderung innerhalb den nächsten 2 Stunden zu erwarten

EDDG 250820Z 20010KT 160V230 9999 FEW020 12/07 Q0997 NOSIG

Prognose für EDDG

vom 25.09. um 05:00 UTC

Zwischen 06:00 UTC und 18:00 UTC

Wind 8 kt aus 200°

Sichtweite 10 km oder mehr

aufgelockert bewölkt in 3500 ft


Zwischen 08:00 UTC und 15:00 UTC zeitweise

Wind 13 kt aus 210°


Zwischen 18:00 und 21:00 UTC übergehend zu

Wind 4 kt aus 120°

Sichtweite 10 km oder mehr

aufgelockert bewölkt in 3500 ft


Am 26.09. zwischen 00:00 und 03:00 UTC übergehend zu

Wind 4 kt aus 120°

Sichtweite 3000 m

feuchter Dunst

aufgelockert bewölkt in 3500 ft


Am 26.09. zwischen 03:00 UTC und 06:00 UTC zeitweise

Sichtweite 1200 m

Nebelschwaden

TAF EDDG 250500Z 2506/2606 20008KT 9999 SCT035 TEMPO 2508/2515 21013KT BECMG 2518/2521 12004KT BECMG 2600/2603 3000 BR TEMPO 2603/2606 1200 BCFG
Impressum